Aromas, California
Current Conditions -  °F | °C
As of 7:13 PM on Friday 28 Nov 2014 (Local Time) from KWVI Reporting Station
Broken Clouds Broken Clouds  
Wind Chill: 11°   Ceiling: 1600
Heat Index: 11°   Visibility: 10mi
Dew Point:   Wind: 0mph
Humidity: 77%   Direction: NA
Pressure: 29.92"   Gusts: NA
Location:  36.88°N, 121.64°W
Report Text: KWVI 290313Z AUTO 00000KT 10SM BKN016 11/07 A2992 RMK AO2 T01110072
Loading
Personal Weather Stations






























Interactive Weather Map New forecast layout! Learn more

10-Day Weather Forecast

Advertisements
Track Severe Weather on mobile